Time;durP1;ratioP1;P1;durP2;ratioP2;P2;SDS_P1;SDS_P2;PMS_P1;PMS_P2;Temp;Humidity;BMP_temperature;BMP_pressure;BME280_temperature;BME280_humidity;BME280_pressure;Samples;Min_cycle;Max_cycle;Signal;HPM_P1;HPM_P2
2022/03/18 00:01:49;;;;;;;11.73;3.60;;;2.20;99.90;;;;;;5052761;28;20071;-74
2022/03/18 00:04:16;;;;;;;12.87;3.40;;;2.20;99.90;;;;;;5059244;28;20100;-74
2022/03/18 00:06:42;;;;;;;13.53;4.07;;;2.20;99.90;;;;;;5069613;28;20044;-74
2022/03/18 00:09:07;;;;;;;14.00;4.33;;;2.10;99.90;;;;;;5065693;28;20462;-74
2022/03/18 00:11:34;;;;;;;10.80;4.27;;;2.20;99.90;;;;;;5082844;28;20040;-74
2022/03/18 00:14:02;;;;;;;13.77;4.50;;;2.10;99.90;;;;;;5067093;28;20052;-74
2022/03/18 00:16:28;;;;;;;13.17;4.57;;;2.10;99.90;;;;;;5038693;28;20060;-74
2022/03/18 00:18:54;;;;;;;10.13;3.70;;;2.10;99.90;;;;;;5072836;28;20352;-74
2022/03/18 00:21:21;;;;;;;10.87;4.20;;;2.10;99.90;;;;;;5074974;28;20040;-74
2022/03/18 00:23:47;;;;;;;13.87;4.50;;;2.10;99.90;;;;;;5068621;28;20330;-74
2022/03/18 00:26:13;;;;;;;9.37;4.10;;;2.10;99.90;;;;;;5057183;28;20334;-74
2022/03/18 00:28:41;;;;;;;7.77;4.43;;;2.00;99.90;;;;;;5066089;28;20487;-76
2022/03/18 00:31:08;;;;;;;14.13;5.07;;;2.00;99.90;;;;;;5078832;28;20446;-75
2022/03/18 00:33:34;;;;;;;17.03;5.10;;;2.00;99.90;;;;;;5066526;28;20968;-75
2022/03/18 00:36:00;;;;;;;19.60;5.20;;;2.00;99.90;;;;;;5075030;28;20301;-74
2022/03/18 00:38:27;;;;;;;23.80;5.50;;;2.00;99.90;;;;;;5059980;28;20123;-74
2022/03/18 00:40:55;;;;;;;11.10;4.20;;;2.00;99.90;;;;;;5064945;28;20313;-74
2022/03/18 00:43:21;;;;;;;11.40;4.07;;;1.90;99.90;;;;;;5049862;28;20375;-74
2022/03/18 00:45:49;;;;;;;14.00;4.20;;;1.90;99.90;;;;;;5048217;28;20334;-74
2022/03/18 00:53:43;;;;;;;10.90;4.67;;;1.90;99.90;;;;;;5063991;28;20048;-74
2022/03/18 00:56:09;;;;;;;13.03;4.60;;;1.80;99.90;;;;;;5056128;28;20308;-74
2022/03/18 00:58:34;;;;;;;12.13;4.07;;;2.00;99.90;;;;;;5069698;28;20491;-74
2022/03/18 01:01:02;;;;;;;8.07;3.93;;;1.90;99.90;;;;;;5074952;28;20495;-74
2022/03/18 01:03:28;;;;;;;15.40;4.97;;;1.80;99.90;;;;;;5049635;28;20114;-74
2022/03/18 01:05:53;;;;;;;14.37;4.17;;;1.80;99.90;;;;;;5044343;28;20304;-74
2022/03/18 01:08:19;;;;;;;10.17;4.00;;;1.80;99.90;;;;;;5071210;28;20048;-74
2022/03/18 01:10:45;;;;;;;20.53;4.57;;;1.80;99.90;;;;;;5073641;28;20044;-75
2022/03/18 01:13:11;;;;;;;12.30;4.37;;;1.80;99.90;;;;;;5060692;28;20049;-74
2022/03/18 01:15:37;;;;;;;11.33;4.20;;;1.80;99.90;;;;;;5065776;28;20098;-74
2022/03/18 01:18:04;;;;;;;15.03;5.70;;;1.70;99.90;;;;;;5047945;28;20050;-74
2022/03/18 01:20:30;;;;;;;20.30;4.60;;;1.80;99.90;;;;;;5073739;28;20051;-74
2022/03/18 01:22:56;;;;;;;10.60;4.43;;;1.70;99.90;;;;;;5050227;28;20309;-74
2022/03/18 01:25:21;;;;;;;13.47;5.40;;;1.70;99.90;;;;;;5051608;28;20304;-76
2022/03/18 01:27:47;;;;;;;14.17;4.83;;;1.70;99.90;;;;;;5070416;28;20044;-73
2022/03/18 01:30:16;;;;;;;10.73;4.43;;;1.70;99.90;;;;;;5048077;28;20136;-73
2022/03/18 01:32:42;;;;;;;10.70;4.77;;;1.80;99.90;;;;;;5057373;28;20487;-74
2022/03/18 01:35:11;;;;;;;12.70;4.47;;;1.70;99.90;;;;;;5069035;28;20302;-75
2022/03/18 01:37:37;;;;;;;11.53;4.37;;;1.70;99.90;;;;;;5058976;28;20051;-74
2022/03/18 01:40:04;;;;;;;17.00;4.30;;;1.70;99.90;;;;;;5056337;28;20306;-74
2022/03/18 01:42:29;;;;;;;12.83;5.03;;;1.70;99.90;;;;;;5050802;28;20048;-74
2022/03/18 01:44:56;;;;;;;11.43;4.93;;;1.70;99.90;;;;;;5056016;28;20642;-75
2022/03/18 01:47:22;;;;;;;12.77;5.10;;;1.60;99.90;;;;;;5064976;28;20298;-74
2022/03/18 01:49:48;;;;;;;12.43;5.23;;;1.60;99.90;;;;;;5067430;28;20305;-74
2022/03/18 01:52:15;;;;;;;10.00;4.33;;;1.60;99.90;;;;;;5075899;28;20255;-74
2022/03/18 01:54:44;;;;;;;13.87;4.40;;;1.60;99.90;;;;;;5075860;28;20056;-73
2022/03/18 01:57:10;;;;;;;15.00;5.90;;;1.70;99.90;;;;;;5055706;28;20290;-73
2022/03/18 01:59:36;;;;;;;14.70;4.70;;;1.70;99.90;;;;;;5053691;28;20326;-73
2022/03/18 02:02:02;;;;;;;21.17;5.40;;;1.60;99.90;;;;;;5069357;28;20343;-74
2022/03/18 02:04:28;;;;;;;11.90;4.30;;;1.60;99.90;;;;;;5072904;28;20052;-74
2022/03/18 02:06:55;;;;;;;11.23;4.37;;;1.60;99.90;;;;;;5052650;28;20312;-74
2022/03/18 02:09:22;;;;;;;14.53;5.07;;;1.60;99.90;;;;;;5050782;28;20309;-73
2022/03/18 02:11:48;;;;;;;9.67;4.10;;;1.60;99.90;;;;;;5050635;28;20290;-73
2022/03/18 02:14:14;;;;;;;9.70;3.87;;;1.50;99.90;;;;;;5051175;28;20413;-74
2022/03/18 02:16:40;;;;;;;12.70;4.57;;;1.50;99.90;;;;;;5077111;28;20975;-73
2022/03/18 02:19:06;;;;;;;9.80;5.40;;;1.50;99.90;;;;;;5058368;28;20573;-74
2022/03/18 02:21:35;;;;;;;11.60;4.50;;;1.50;99.90;;;;;;5046182;28;20119;-74
2022/03/18 02:24:02;;;;;;;16.43;4.83;;;1.50;99.90;;;;;;5065393;28;20294;-74
2022/03/18 02:26:28;;;;;;;12.90;5.40;;;1.50;99.90;;;;;;5076687;28;21180;-74
2022/03/18 02:28:56;;;;;;;19.90;6.07;;;1.60;99.90;;;;;;5083586;28;26838;-74
2022/03/18 02:31:21;;;;;;;17.57;6.13;;;1.50;99.90;;;;;;5050070;28;20530;-76
2022/03/18 02:33:47;;;;;;;17.97;6.57;;;1.40;99.90;;;;;;5064532;28;20337;-74
2022/03/18 02:36:13;;;;;;;17.90;6.33;;;1.50;99.90;;;;;;5053217;28;20044;-74
2022/03/18 02:38:39;;;;;;;12.83;5.27;;;1.50;99.90;;;;;;5083480;28;20054;-74
2022/03/18 02:41:06;;;;;;;13.80;5.10;;;1.50;99.90;;;;;;5074659;28;20498;-74
2022/03/18 02:43:32;;;;;;;14.50;4.80;;;1.50;99.90;;;;;;5069712;28;20131;-74
2022/03/18 02:45:57;;;;;;;12.70;5.13;;;1.40;99.90;;;;;;5071982;28;20388;-75
2022/03/18 02:48:23;;;;;;;15.10;5.63;;;1.40;99.90;;;;;;5048462;28;20546;-74
2022/03/18 02:50:49;;;;;;;16.50;6.43;;;1.40;99.90;;;;;;5072126;28;20054;-74
2022/03/18 02:53:14;;;;;;;13.23;5.57;;;1.30;99.90;;;;;;5081007;28;20056;-73
2022/03/18 02:55:40;;;;;;;17.43;6.70;;;1.30;99.90;;;;;;5070467;28;20495;-74
2022/03/18 02:58:07;;;;;;;19.27;6.27;;;1.30;99.90;;;;;;5075374;28;20127;-74
2022/03/18 03:00:33;;;;;;;13.77;5.70;;;1.30;99.90;;;;;;5068096;28;20041;-74
2022/03/18 03:02:59;;;;;;;13.30;5.40;;;1.30;99.90;;;;;;5114029;27;20295;-74
2022/03/18 03:08:09;;;;;;;13.90;6.13;;;1.40;99.90;;;;;;5076877;28;20048;-74
2022/03/18 03:10:36;;;;;;;12.93;5.93;;;1.30;99.90;;;;;;5077389;28;20491;-74
2022/03/18 03:13:06;;;;;;;12.43;5.27;;;1.30;99.90;;;;;;5071611;28;20036;-74
2022/03/18 03:15:33;;;;;;;19.23;6.80;;;1.30;99.90;;;;;;5044993;28;20333;-74
2022/03/18 03:17:59;;;;;;;21.27;6.27;;;1.30;99.90;;;;;;5079709;28;20308;-75
2022/03/18 03:20:25;;;;;;;15.13;6.20;;;1.30;99.90;;;;;;5075523;28;20036;-75
2022/03/18 03:22:51;;;;;;;15.13;6.03;;;1.30;99.90;;;;;;5080683;28;20071;-75
2022/03/18 03:25:16;;;;;;;17.23;5.83;;;1.40;99.90;;;;;;5067988;28;20122;-74
2022/03/18 03:27:42;;;;;;;15.47;5.80;;;1.30;99.90;;;;;;5058903;28;20040;-74
2022/03/18 03:30:10;;;;;;;11.53;5.47;;;1.30;99.90;;;;;;5070824;28;20047;-74
2022/03/18 03:32:38;;;;;;;16.10;6.07;;;1.30;99.90;;;;;;5048334;28;20035;-74
2022/03/18 03:35:05;;;;;;;12.87;5.87;;;1.40;99.90;;;;;;5067526;28;20813;-74
2022/03/18 03:37:31;;;;;;;16.03;6.03;;;1.30;99.90;;;;;;5054854;28;20305;-73
2022/03/18 03:39:57;;;;;;;15.67;6.10;;;1.30;99.90;;;;;;5091825;28;20302;-74
2022/03/18 03:42:22;;;;;;;13.77;6.03;;;1.30;99.90;;;;;;5057802;28;20669;-74
2022/03/18 03:44:48;;;;;;;14.97;6.60;;;1.30;99.90;;;;;;5049225;28;20172;-74
2022/03/18 03:47:14;;;;;;;14.80;6.80;;;1.30;99.90;;;;;;5061605;28;20126;-73
2022/03/18 03:49:42;;;;;;;15.87;6.33;;;1.30;99.90;;;;;;5062525;28;20293;-75
2022/03/18 03:52:08;;;;;;;18.47;7.03;;;1.40;99.90;;;;;;5074440;28;20866;-74
2022/03/18 03:54:34;;;;;;;17.97;6.27;;;1.30;99.90;;;;;;5079926;28;20293;-74
2022/03/18 03:57:00;;;;;;;17.70;7.63;;;1.40;99.90;;;;;;5065213;28;20670;-74
2022/03/18 03:59:25;;;;;;;11.10;5.80;;;1.30;99.90;;;;;;5054610;28;20427;-74
2022/03/18 04:01:51;;;;;;;18.27;5.90;;;1.30;99.90;;;;;;5070175;28;20078;-73
2022/03/18 04:04:17;;;;;;;12.90;6.23;;;1.30;99.90;;;;;;5077691;28;20054;-74
2022/03/18 04:06:44;;;;;;;16.00;5.97;;;1.30;99.90;;;;;;5070545;28;20052;-74
2022/03/18 04:09:10;;;;;;;15.20;5.23;;;1.40;99.90;;;;;;5062741;28;20499;-73
2022/03/18 04:11:35;;;;;;;12.37;5.80;;;1.30;99.90;;;;;;5077983;28;20298;-73
2022/03/18 04:14:01;;;;;;;18.03;6.80;;;1.30;99.90;;;;;;5063270;28;20829;-74
2022/03/18 04:16:27;;;;;;;19.13;6.93;;;1.30;99.90;;;;;;5072614;28;20048;-74
2022/03/18 04:18:53;;;;;;;18.73;6.70;;;1.30;99.90;;;;;;5073656;28;20100;-74
2022/03/18 04:21:18;;;;;;;16.70;6.03;;;1.30;99.90;;;;;;5067026;28;20717;-76
2022/03/18 04:23:45;;;;;;;18.37;6.73;;;1.30;99.90;;;;;;5060793;28;20451;-74
2022/03/18 04:26:11;;;;;;;17.10;6.20;;;1.30;99.90;;;;;;5073008;28;20040;-75
2022/03/18 04:28:37;;;;;;;13.77;6.60;;;1.30;99.90;;;;;;5066667;28;20847;-74
2022/03/18 04:31:02;;;;;;;21.27;6.60;;;1.30;99.90;;;;;;5078961;28;20036;-75
2022/03/18 04:33:28;;;;;;;20.03;6.73;;;1.30;99.90;;;;;;5069522;28;20570;-74
2022/03/18 04:35:54;;;;;;;19.17;7.13;;;1.30;99.90;;;;;;5055364;28;20054;-74
2022/03/18 04:38:20;;;;;;;14.87;6.47;;;1.30;99.90;;;;;;5075948;28;20123;-74
2022/03/18 04:40:47;;;;;;;13.87;5.20;;;1.30;99.90;;;;;;5052061;28;20423;-74
2022/03/18 04:43:12;;;;;;;13.50;6.00;;;1.30;99.90;;;;;;5056095;28;20434;-74
2022/03/18 04:45:38;;;;;;;14.47;5.77;;;1.30;99.90;;;;;;5067738;28;20313;-74
2022/03/18 04:48:04;;;;;;;10.60;5.60;;;1.30;99.90;;;;;;5054055;28;20050;-74
2022/03/18 04:50:30;;;;;;;18.33;7.13;;;1.20;99.90;;;;;;5079966;28;20036;-74
2022/03/18 04:52:56;;;;;;;13.33;5.60;;;1.20;99.90;;;;;;5067607;28;20302;-74
2022/03/18 04:55:22;;;;;;;15.10;5.63;;;1.20;99.90;;;;;;5039595;28;20047;-74
2022/03/18 04:57:49;;;;;;;15.07;5.73;;;1.20;99.90;;;;;;5074119;28;20056;-78
2022/03/18 05:00:17;;;;;;;15.43;6.67;;;1.30;99.90;;;;;;5044856;28;20293;-74
2022/03/18 05:02:43;;;;;;;15.50;6.90;;;1.20;99.90;;;;;;5050912;28;20328;-74
2022/03/18 05:05:10;;;;;;;14.93;6.13;;;1.20;99.90;;;;;;5066787;28;20317;-74
2022/03/18 05:07:38;;;;;;;19.03;6.57;;;1.20;99.90;;;;;;5071673;28;20297;-74
2022/03/18 05:10:06;;;;;;;13.13;5.73;;;1.10;99.90;;;;;;5071669;28;20388;-76
2022/03/18 05:12:32;;;;;;;20.90;6.67;;;1.10;99.90;;;;;;5069559;28;20298;-77
2022/03/18 05:14:59;;;;;;;13.27;5.80;;;1.20;99.90;;;;;;5086836;28;20303;-75
2022/03/18 05:17:25;;;;;;;12.20;6.30;;;1.10;99.90;;;;;;5072791;28;20090;-74
2022/03/18 05:19:51;;;;;;;16.00;6.87;;;1.10;99.90;;;;;;5066946;28;20302;-74
2022/03/18 05:22:17;;;;;;;19.13;7.20;;;1.10;99.90;;;;;;5087556;28;20041;-75
2022/03/18 05:24:42;;;;;;;16.63;7.57;;;1.10;99.90;;;;;;5072898;28;20163;-75
2022/03/18 05:27:08;;;;;;;18.43;8.00;;;1.20;99.90;;;;;;5072793;28;20401;-76
2022/03/18 05:29:35;;;;;;;19.30;7.93;;;1.20;99.90;;;;;;5069969;28;20049;-74
2022/03/18 05:32:04;;;;;;;16.83;8.33;;;1.20;99.90;;;;;;5068483;28;20292;-74
2022/03/18 05:34:30;;;;;;;17.77;8.10;;;1.20;99.90;;;;;;5070818;28;20298;-74
2022/03/18 05:36:55;;;;;;;17.60;7.87;;;1.20;99.90;;;;;;5047157;28;20314;-74
2022/03/18 05:39:21;;;;;;;16.07;7.13;;;1.30;99.90;;;;;;5056396;28;20048;-74
2022/03/18 05:41:48;;;;;;;18.43;7.23;;;1.30;99.90;;;;;;5071272;28;20044;-74
2022/03/18 05:44:14;;;;;;;15.83;6.90;;;1.20;99.90;;;;;;5058191;28;20297;-74
2022/03/18 05:46:40;;;;;;;17.57;7.70;;;1.20;99.90;;;;;;5057255;28;20380;-74
2022/03/18 05:49:07;;;;;;;19.37;7.93;;;1.20;99.90;;;;;;5070256;28;20411;-74
2022/03/18 05:51:33;;;;;;;19.03;7.77;;;1.20;99.90;;;;;;5051399;28;20059;-75
2022/03/18 05:53:59;;;;;;;16.03;7.50;;;1.20;99.90;;;;;;5050492;28;20302;-74
2022/03/18 05:59:10;;;;;;;20.10;9.37;;;1.20;99.90;;;;;;5082172;28;20048;-76
2022/03/18 06:01:37;;;;;;;20.90;8.70;;;1.20;99.90;;;;;;5048570;28;20302;-74
2022/03/18 06:04:04;;;;;;;20.20;8.10;;;1.20;99.90;;;;;;5073605;28;20359;-74
2022/03/18 06:06:31;;;;;;;19.13;8.60;;;1.30;99.90;;;;;;5071038;28;20396;-79
2022/03/18 06:11:51;;;;;;;17.42;8.90;;;1.30;99.90;;;;;;5102744;28;20737;-76
2022/03/18 06:14:18;;;;;;;18.03;8.70;;;1.50;99.90;;;;;;5061272;28;20054;-74
2022/03/18 06:16:45;;;;;;;17.90;8.83;;;1.70;99.90;;;;;;5070543;28;20299;-74
2022/03/18 06:19:11;;;;;;;15.10;7.73;;;1.90;99.90;;;;;;5065050;28;20351;-74
2022/03/18 06:21:39;;;;;;;18.10;8.17;;;2.00;99.90;;;;;;5061288;28;20302;-74
2022/03/18 06:24:06;;;;;;;13.60;7.70;;;2.20;99.90;;;;;;5085775;28;20040;-75
2022/03/18 06:26:33;;;;;;;13.17;7.37;;;2.40;99.90;;;;;;5067598;28;20747;-74
2022/03/18 06:28:59;;;;;;;19.60;9.07;;;2.60;99.90;;;;;;5077362;28;20035;-74
2022/03/18 06:31:25;;;;;;;18.03;8.80;;;2.70;99.90;;;;;;5056580;28;20298;-74
2022/03/18 06:33:51;;;;;;;17.70;8.67;;;2.80;99.90;;;;;;5062561;28;20304;-74
2022/03/18 06:36:17;;;;;;;14.13;7.87;;;3.00;99.90;;;;;;5049270;28;20047;-74
2022/03/18 06:38:44;;;;;;;14.80;6.90;;;3.00;99.90;;;;;;5061468;28;20689;-75
2022/03/18 06:41:10;;;;;;;18.57;7.60;;;3.00;99.90;;;;;;5071745;28;20048;-74
2022/03/18 06:43:36;;;;;;;18.60;7.93;;;2.90;99.90;;;;;;5058320;28;20824;-75
2022/03/18 06:46:02;;;;;;;12.97;7.23;;;2.90;99.90;;;;;;5063355;28;20052;-75
2022/03/18 06:48:28;;;;;;;15.43;7.57;;;2.80;99.90;;;;;;5064844;28;20395;-74
2022/03/18 06:50:54;;;;;;;15.87;7.50;;;2.80;99.90;;;;;;5071069;28;20299;-75
2022/03/18 06:53:20;;;;;;;14.30;7.80;;;2.90;99.90;;;;;;5075634;28;20055;-75
2022/03/18 06:55:47;;;;;;;14.40;8.07;;;3.10;99.90;;;;;;5074064;28;20306;-74
2022/03/18 06:58:12;;;;;;;18.53;8.40;;;3.30;99.90;;;;;;5069273;28;20043;-74
2022/03/18 07:00:39;;;;;;;13.47;6.93;;;3.60;99.90;;;;;;5053819;28;20040;-74
2022/03/18 07:03:05;;;;;;;17.43;7.80;;;3.80;99.90;;;;;;5094250;28;20036;-75
2022/03/18 07:05:32;;;;;;;12.77;6.63;;;4.00;99.90;;;;;;5069857;28;20310;-75
2022/03/18 07:07:57;;;;;;;13.00;7.23;;;4.10;99.90;;;;;;5061405;28;20120;-76
2022/03/18 07:10:23;;;;;;;15.57;6.67;;;4.40;99.90;;;;;;5067001;28;20039;-75
2022/03/18 07:12:50;;;;;;;16.97;7.60;;;4.70;99.90;;;;;;5087732;28;20311;-75
2022/03/18 07:15:16;;;;;;;15.37;7.70;;;4.90;99.90;;;;;;5046718;28;20127;-76
2022/03/18 07:18:01;;;;;;;14.70;7.70;;;5.40;99.90;;;;;;5065450;28;20484;-78
2022/03/18 07:20:28;;;;;;;13.17;7.00;;;6.00;99.90;;;;;;5062691;28;20420;-79
2022/03/18 07:23:02;;;;;;;12.67;6.37;;;6.90;99.90;;;;;;5064399;28;20119;-76
2022/03/18 07:25:28;;;;;;;13.95;6.93;;;7.40;99.90;;;;;;5067968;28;20445;-75
2022/03/18 07:27:55;;;;;;;16.47;7.47;;;7.40;99.90;;;;;;5031523;28;20120;-75
2022/03/18 07:30:21;;;;;;;21.60;9.40;;;7.40;99.90;;;;;;5060769;28;20060;-76
2022/03/18 07:32:47;;;;;;;19.87;10.20;;;7.50;99.90;;;;;;5065001;28;20075;-75
2022/03/18 07:35:14;;;;;;;21.87;11.80;;;7.50;99.90;;;;;;5044259;28;20044;-76
2022/03/18 07:37:40;;;;;;;20.70;13.73;;;7.50;99.90;;;;;;5049125;28;20036;-75
2022/03/18 07:40:08;;;;;;;20.37;12.47;;;7.30;99.90;;;;;;5047312;28;20148;-78
2022/03/18 07:42:41;;;;;;;22.37;12.80;;;7.40;99.90;;;;;;5081791;28;20523;-77
2022/03/18 07:45:09;;;;;;;18.10;11.90;;;7.60;99.90;;;;;;5065118;28;20029;-76
2022/03/18 07:47:35;;;;;;;24.50;12.83;;;7.80;99.90;;;;;;5079877;28;20048;-78
2022/03/18 07:50:01;;;;;;;18.70;11.20;;;8.20;99.90;;;;;;5038049;28;20044;-78
2022/03/18 07:52:27;;;;;;;20.80;12.47;;;8.60;99.90;;;;;;5048559;28;20051;-77
2022/03/18 07:54:53;;;;;;;17.67;10.90;;;8.80;99.90;;;;;;5049972;28;20040;-76
2022/03/18 07:57:18;;;;;;;19.50;11.97;;;9.00;99.90;;;;;;5069870;28;20047;-76
2022/03/18 07:59:44;;;;;;;20.80;11.40;;;9.00;99.90;;;;;;5075972;28;20412;-76
2022/03/18 08:02:11;;;;;;;18.63;11.47;;;8.80;99.90;;;;;;5053907;28;20191;-78
2022/03/18 08:04:37;;;;;;;23.50;12.10;;;8.70;99.90;;;;;;5073693;28;20050;-76
2022/03/18 08:07:03;;;;;;;21.03;11.10;;;8.70;99.90;;;;;;5066549;28;20039;-76
2022/03/18 08:09:29;;;;;;;21.33;11.83;;;8.70;99.90;;;;;;5057251;28;20062;-75
2022/03/18 08:11:55;;;;;;;18.33;11.97;;;8.80;99.90;;;;;;5070869;28;20400;-75
2022/03/18 08:14:21;;;;;;;20.07;12.53;;;8.80;99.90;;;;;;5054831;28;20050;-77
2022/03/18 08:16:47;;;;;;;22.03;12.67;;;8.70;99.90;;;;;;5072747;28;20047;-76
2022/03/18 08:19:14;;;;;;;20.60;11.77;;;8.70;99.90;;;;;;5042167;28;20137;-77
2022/03/18 08:21:39;;;;;;;22.13;11.33;;;8.70;99.90;;;;;;5078287;28;20059;-75
2022/03/18 08:24:06;;;;;;;19.97;12.30;;;8.80;99.90;;;;;;5053763;28;20036;-75
2022/03/18 08:26:36;;;;;;;20.40;12.53;;;8.80;99.90;;;;;;5046983;28;20072;-77
2022/03/18 08:29:03;;;;;;;17.03;11.17;;;8.90;99.90;;;;;;5059887;28;20032;-77
2022/03/18 08:31:30;;;;;;;18.40;12.83;;;9.10;99.90;;;;;;5056761;28;20051;-77
2022/03/18 08:33:55;;;;;;;21.03;12.33;;;9.20;99.90;;;;;;5072661;28;20027;-77
2022/03/18 08:36:22;;;;;;;17.27;12.57;;;9.30;99.90;;;;;;5074186;28;20503;-75
2022/03/18 08:38:48;;;;;;;19.87;12.00;;;9.40;99.90;;;;;;5067689;28;20131;-77
2022/03/18 08:41:14;;;;;;;18.33;11.93;;;9.70;99.90;;;;;;5074114;28;20052;-77
2022/03/18 08:43:39;;;;;;;20.00;12.50;;;10.10;99.90;;;;;;5074121;28;20051;-76
2022/03/18 08:46:05;;;;;;;21.13;12.07;;;10.60;99.90;;;;;;5072378;28;20689;-76
2022/03/18 08:48:31;;;;;;;21.10;12.23;;;11.20;99.90;;;;;;5058722;28;20040;-76
2022/03/18 08:50:57;;;;;;;18.87;11.40;;;11.90;99.90;;;;;;5071487;28;20409;-75
2022/03/18 08:53:24;;;;;;;22.60;10.73;;;12.50;99.90;;;;;;5070706;28;20043;-76
2022/03/18 08:55:50;;;;;;;19.57;11.10;;;13.00;99.90;;;;;;5054559;28;20058;-76
2022/03/18 08:58:16;;;;;;;18.97;10.93;;;13.20;99.90;;;;;;5050462;28;20083;-78
2022/03/18 09:00:41;;;;;;;17.93;9.57;;;13.30;99.90;;;;;;5075424;28;20495;-76
2022/03/18 09:03:07;;;;;;;18.70;10.83;;;13.40;99.90;;;;;;5065816;28;20131;-75
2022/03/18 09:05:34;;;;;;;19.33;9.97;;;13.50;99.90;;;;;;5044070;28;20044;-76
2022/03/18 09:07:59;;;;;;;18.77;9.63;;;13.60;99.90;;;;;;5043538;28;20051;-79
2022/03/18 09:10:27;;;;;;;17.20;8.73;;;13.70;99.90;;;;;;5064010;28;20036;-76
2022/03/18 09:12:58;;;;;;;20.00;8.77;;;13.80;99.90;;;;;;5056618;28;20127;-77
2022/03/18 09:15:24;;;;;;;17.53;8.30;;;14.00;99.90;;;;;;5088339;28;20040;-76
2022/03/18 09:17:49;;;;;;;21.07;9.00;;;14.10;99.90;;;;;;5053363;28;20054;-78
2022/03/18 09:20:15;;;;;;;19.40;9.43;;;14.20;99.90;;;;;;5056353;28;20698;-79
2022/03/18 09:22:41;;;;;;;21.03;8.13;;;14.30;99.90;;;;;;5065138;28;20151;-77
2022/03/18 09:25:08;;;;;;;22.77;8.77;;;14.40;99.90;;;;;;5053227;28;20051;-76
2022/03/18 09:27:35;;;;;;;20.03;8.47;;;14.60;99.90;;;;;;5066379;28;20141;-79
2022/03/18 09:30:01;;;;;;;24.97;9.43;;;15.00;99.90;;;;;;5046921;28;20435;-79
2022/03/18 09:32:27;;;;;;;19.70;8.17;;;15.60;99.90;;;;;;5088087;28;20043;-79
2022/03/18 09:34:54;;;;;;;17.43;8.43;;;16.60;99.90;;;;;;5061686;28;20046;-76
2022/03/18 09:37:19;;;;;;;17.57;8.13;;;17.80;99.90;;;;;;5071160;28;20090;-78
2022/03/18 09:39:45;;;;;;;20.03;8.00;;;19.00;99.90;;;;;;5071520;28;20064;-80
2022/03/18 09:42:11;;;;;;;21.30;8.17;;;20.10;99.90;;;;;;5085785;28;20525;-77
2022/03/18 09:44:39;;;;;;;14.47;7.90;;;20.70;95.10;;;;;;5077446;28;20052;-76
2022/03/18 09:47:06;;;;;;;19.57;7.80;;;21.00;91.90;;;;;;5081200;28;20043;-78
2022/03/18 09:49:33;;;;;;;18.60;8.40;;;20.80;84.80;;;;;;5100727;28;20058;-79
2022/03/18 09:51:59;;;;;;;14.97;7.57;;;20.40;86.40;;;;;;5068392;28;20073;-78
2022/03/18 09:54:27;;;;;;;17.63;7.47;;;20.40;86.50;;;;;;5079552;28;20070;-78
2022/03/18 09:56:52;;;;;;;18.67;8.30;;;21.10;90.20;;;;;;5097385;28;20067;-79
2022/03/18 09:59:19;;;;;;;16.93;7.63;;;22.20;89.00;;;;;;5087841;28;20043;-78
2022/03/18 10:01:46;;;;;;;15.57;7.10;;;23.10;86.50;;;;;;5074423;28;20071;-77
2022/03/18 10:04:13;;;;;;;14.87;6.83;;;23.90;81.40;;;;;;5098295;28;20099;-77
2022/03/18 10:06:42;;;;;;;16.67;7.20;;;24.60;79.50;;;;;;5097169;28;20515;-78
2022/03/18 10:09:08;;;;;;;16.70;7.10;;;24.90;72.70;;;;;;5097728;28;20027;-79
2022/03/18 10:11:40;;;;;;;15.77;6.70;;;25.30;67.30;;;;;;5098275;28;20052;-77
2022/03/18 10:14:08;;;;;;;14.70;7.10;;;25.50;65.80;;;;;;5093943;28;20044;-80
2022/03/18 10:16:36;;;;;;;18.25;7.05;;;26.10;65.30;;;;;;5076151;28;20068;-77
2022/03/18 10:19:06;;;;;;;13.07;6.07;;;26.60;62.70;;;;;;5063355;28;20086;-77
2022/03/18 10:21:33;;;;;;;16.02;6.65;;;27.00;60.10;;;;;;5103186;28;21791;-79
2022/03/18 10:24:07;;;;;;;16.73;6.45;;;27.30;57.60;;;;;;5104468;28;20043;-77
2022/03/18 10:26:37;;;;;;;;;;;27.40;54.20;;;;;;5104201;28;20035;-77
2022/03/18 10:29:04;;;;;;;15.45;6.07;;;27.10;54.10;;;;;;5084681;28;20485;-78
2022/03/18 10:31:30;;;;;;;15.48;6.47;;;27.10;54.70;;;;;;5092748;28;20080;-77
2022/03/18 10:37:04;;;;;;;14.88;6.10;;;27.90;49.90;;;;;;5073918;28;20048;-78
2022/03/18 10:39:32;;;;;;;14.43;5.50;;;28.10;51.10;;;;;;5062082;28;20048;-77
2022/03/18 10:42:00;;;;;;;15.60;6.30;;;28.30;49.40;;;;;;5094434;28;20044;-77
2022/03/18 10:44:26;;;;;;;17.10;6.38;;;28.50;50.00;;;;;;5088788;28;20085;-79
2022/03/18 10:46:54;;;;;;;12.95;5.60;;;28.80;50.60;;;;;;5070217;28;20567;-78
2022/03/18 10:49:23;;;;;;;13.60;5.45;;;28.80;46.10;;;;;;5097949;28;20943;-78
2022/03/18 10:51:50;;;;;;;11.13;5.45;;;28.30;46.00;;;;;;5080263;28;20044;-79
2022/03/18 10:54:23;;;;;;;17.33;5.85;;;28.10;45.60;;;;;;5082676;28;20050;-77
2022/03/18 10:56:55;;;;;;;13.73;5.72;;;27.90;48.00;;;;;;5082036;28;20045;-77
2022/03/18 10:59:23;;;;;;;15.60;5.78;;;28.10;47.30;;;;;;5099980;28;20043;-77
2022/03/18 11:01:51;;;;;;;12.70;5.20;;;28.20;48.40;;;;;;5080213;28;20071;-79
2022/03/18 11:04:17;;;;;;;14.32;4.78;;;28.40;46.00;;;;;;5095957;28;20044;-79
2022/03/18 11:07:29;;;;;;;15.85;5.35;;;28.20;45.40;;;;;;5097841;28;20057;-77
2022/03/18 11:11:06;;;;;;;8.80;4.15;;;28.50;45.40;;;;;;5096332;28;20410;-79
2022/03/18 11:12:23;;;;;;;12.52;4.57;;;28.20;42.90;;;;;;5069469;28;20768;-77
2022/03/18 11:14:53;;;;;;;13.38;4.53;;;27.80;42.90;;;;;;5101774;28;20040;-76
2022/03/18 11:17:20;;;;;;;14.60;4.90;;;27.60;43.20;;;;;;5055949;28;20044;-76
2022/03/18 11:19:46;;;;;;;13.63;5.00;;;27.10;44.10;;;;;;5100869;28;21325;-77
2022/03/18 11:22:15;;;;;;;10.85;4.80;;;26.70;47.30;;;;;;5099768;28;20063;-77
2022/03/18 11:24:42;;;;;;;12.68;4.50;;;27.00;48.20;;;;;;5077201;28;20048;-76
2022/03/18 11:27:08;;;;;;;10.73;4.03;;;27.50;46.90;;;;;;5069094;28;20439;-77
2022/03/18 11:29:34;;;;;;;12.38;4.07;;;27.70;43.00;;;;;;5097140;28;20081;-78
2022/03/18 11:32:20;;;;;;;11.77;3.97;;;27.10;41.80;;;;;;5076420;28;20036;-78
2022/03/18 11:34:50;;;;;;;13.32;4.30;;;26.70;42.00;;;;;;5057891;28;20500;-78
2022/03/18 11:37:17;;;;;;;11.73;3.97;;;26.70;43.40;;;;;;5059553;28;20397;-78
2022/03/18 11:39:44;;;;;;;11.07;4.07;;;26.50;44.10;;;;;;5057810;28;20051;-77
2022/03/18 11:42:10;;;;;;;11.20;3.53;;;26.60;44.80;;;;;;5086489;28;20036;-77
2022/03/18 11:45:00;;;;;;;10.00;3.78;;;26.90;45.10;;;;;;5072942;28;20515;-77
2022/03/18 11:47:38;;;;;;;9.95;3.83;;;26.80;42.60;;;;;;5065999;28;20419;-77
2022/03/18 11:50:45;;;;;;;11.82;4.30;;;26.70;43.00;;;;;;5057523;28;20055;-77
2022/03/18 11:53:31;;;;;;;11.35;4.32;;;26.70;43.00;;;;;;5079401;28;20044;-78
2022/03/18 11:56:10;;;;;;;9.38;4.20;;;26.60;42.50;;;;;;5058629;28;20044;-77
2022/03/18 11:58:36;;;;;;;13.38;4.03;;;26.40;45.20;;;;;;5080571;28;20048;-78
2022/03/18 12:01:02;;;;;;;9.88;4.32;;;26.60;43.30;;;;;;5077400;28;20051;-77
2022/03/18 12:03:29;;;;;;;13.05;4.35;;;26.40;45.70;;;;;;5079364;28;20414;-77
2022/03/18 12:05:57;;;;;;;12.98;4.85;;;26.70;45.60;;;;;;5058652;28;20098;-77
2022/03/18 12:08:55;;;;;;;14.98;4.47;;;26.20;44.40;;;;;;5094068;28;20073;-79
2022/03/18 12:11:30;;;;;;;10.73;3.33;;;24.90;45.00;;;;;;5064357;28;20089;-80
2022/03/18 12:13:57;;;;;;;8.80;4.10;;;24.00;45.60;;;;;;5094381;28;20660;-80
2022/03/18 12:16:23;;;;;;;12.00;4.43;;;23.10;47.30;;;;;;5095048;28;20071;-78
2022/03/18 12:18:55;;;;;;;12.57;4.15;;;22.30;49.10;;;;;;5091114;28;25805;-79
2022/03/18 12:21:33;;;;;;;10.20;3.63;;;21.50;49.20;;;;;;5062748;28;20058;-79
2022/03/18 12:24:04;;;;;;;11.90;3.70;;;20.60;50.70;;;;;;5073434;28;20131;-79
2022/03/18 12:26:31;;;;;;;10.50;3.70;;;20.80;51.60;;;;;;5081230;28;20075;-78
2022/03/18 12:28:57;;;;;;;11.53;4.30;;;21.20;53.10;;;;;;5098022;28;20043;-77
2022/03/18 12:31:22;;;;;;;10.50;4.30;;;21.60;50.10;;;;;;5091889;28;20043;-79
2022/03/18 12:33:55;;;;;;;11.87;3.80;;;21.20;50.80;;;;;;5085311;28;20064;-78
2022/03/18 12:36:24;;;;;;;12.83;4.57;;;21.00;51.60;;;;;;5091387;28;20484;-79
2022/03/18 12:38:50;;;;;;;9.03;3.80;;;20.80;52.80;;;;;;5074064;28;20069;-78
2022/03/18 12:41:21;;;;;;;10.67;2.67;;;20.70;52.90;;;;;;5075391;28;20040;-79
2022/03/18 12:43:48;;;;;;;10.73;3.13;;;20.40;52.70;;;;;;5044011;28;20059;-78
2022/03/18 12:46:15;;;;;;;11.03;2.93;;;19.90;53.10;;;;;;5059050;28;20676;-78
2022/03/18 12:48:47;;;;;;;8.57;2.80;;;19.40;54.00;;;;;;5069524;28;20131;-79
2022/03/18 12:51:13;;;;;;;11.13;3.20;;;18.90;55.20;;;;;;5053482;28;20398;-79
2022/03/18 12:53:46;;;;;;;12.23;3.83;;;18.50;56.70;;;;;;5053697;28;20130;-79
2022/03/18 12:56:22;;;;;;;12.73;3.40;;;18.20;58.50;;;;;;5051166;28;20116;-79
2022/03/18 12:58:54;;;;;;;15.40;3.77;;;18.60;58.90;;;;;;5077873;28;20127;-80
2022/03/18 13:01:19;;;;;;;14.23;3.33;;;18.90;58.20;;;;;;5052893;28;20044;-79